sensor_id;sensor_type;location;lat;lon;timestamp;temperature;humidity
19397;DHT22;9834;48.076;11.878;2023-12-07T00:01:04;1.60;99.90
19397;DHT22;9834;48.076;11.878;2023-12-07T00:03:31;1.50;99.90
19397;DHT22;9834;48.076;11.878;2023-12-07T00:05:59;1.50;99.90
19397;DHT22;9834;48.076;11.878;2023-12-07T00:08:26;1.50;99.90
19397;DHT22;9834;48.076;11.878;2023-12-07T00:10:54;1.50;99.90
19397;DHT22;9834;48.076;11.878;2023-12-07T00:13:21;1.50;99.90
19397;DHT22;9834;48.076;11.878;2023-12-07T00:15:50;1.50;99.90
19397;DHT22;9834;48.076;11.878;2023-12-07T00:18:24;1.60;99.90
19397;DHT22;9834;48.076;11.878;2023-12-07T00:20:51;1.60;99.90
19397;DHT22;9834;48.076;11.878;2023-12-07T00:23:19;1.50;99.90
19397;DHT22;9834;48.076;11.878;2023-12-07T00:25:50;1.50;99.90
19397;DHT22;9834;48.076;11.878;2023-12-07T00:28:17;1.50;99.90
19397;DHT22;9834;48.076;11.878;2023-12-07T00:30:45;1.50;99.90
19397;DHT22;9834;48.076;11.878;2023-12-07T00:33:14;1.50;99.90
19397;DHT22;9834;48.076;11.878;2023-12-07T00:35:42;1.50;99.90
19397;DHT22;9834;48.076;11.878;2023-12-07T00:38:16;1.50;99.90
19397;DHT22;9834;48.076;11.878;2023-12-07T00:40:44;1.50;99.90
19397;DHT22;9834;48.076;11.878;2023-12-07T00:43:14;1.50;99.90
19397;DHT22;9834;48.076;11.878;2023-12-07T00:45:43;1.40;99.90
19397;DHT22;9834;48.076;11.878;2023-12-07T00:48:17;1.30;99.90
19397;DHT22;9834;48.076;11.878;2023-12-07T00:50:45;1.20;99.90
19397;DHT22;9834;48.076;11.878;2023-12-07T00:53:15;1.10;99.90
19397;DHT22;9834;48.076;11.878;2023-12-07T00:55:42;1.00;99.90
19397;DHT22;9834;48.076;11.878;2023-12-07T00:58:19;0.80;99.90
19397;DHT22;9834;48.076;11.878;2023-12-07T01:00:58;0.80;99.90
19397;DHT22;9834;48.076;11.878;2023-12-07T01:03:27;0.70;99.90
19397;DHT22;9834;48.076;11.878;2023-12-07T01:06:00;0.60;99.90
19397;DHT22;9834;48.076;11.878;2023-12-07T01:08:33;0.60;99.90
19397;DHT22;9834;48.076;11.878;2023-12-07T01:11:01;0.60;99.90
19397;DHT22;9834;48.076;11.878;2023-12-07T01:13:32;0.70;99.90
19397;DHT22;9834;48.076;11.878;2023-12-07T01:16:02;0.60;99.90
19397;DHT22;9834;48.076;11.878;2023-12-07T01:18:31;0.60;99.90
19397;DHT22;9834;48.076;11.878;2023-12-07T01:20:58;0.50;99.90
19397;DHT22;9834;48.076;11.878;2023-12-07T01:23:26;0.50;99.90
19397;DHT22;9834;48.076;11.878;2023-12-07T01:25:57;0.40;99.90
19397;DHT22;9834;48.076;11.878;2023-12-07T01:28:29;0.30;99.90
19397;DHT22;9834;48.076;11.878;2023-12-07T01:31:00;0.20;99.90
19397;DHT22;9834;48.076;11.878;2023-12-07T01:33:32;0.20;99.90
19397;DHT22;9834;48.076;11.878;2023-12-07T01:36:05;0.10;99.90
19397;DHT22;9834;48.076;11.878;2023-12-07T01:38:36;0.00;99.90
19397;DHT22;9834;48.076;11.878;2023-12-07T01:41:03;-0.10;99.90
19397;DHT22;9834;48.076;11.878;2023-12-07T01:43:47;-0.20;99.90
19397;DHT22;9834;48.076;11.878;2023-12-07T01:46:16;-0.40;99.90
19397;DHT22;9834;48.076;11.878;2023-12-07T01:48:45;-0.50;99.90
19397;DHT22;9834;48.076;11.878;2023-12-07T01:51:15;-0.50;99.90
19397;DHT22;9834;48.076;11.878;2023-12-07T01:53:49;-0.60;99.90
19397;DHT22;9834;48.076;11.878;2023-12-07T01:56:17;-0.70;99.90
19397;DHT22;9834;48.076;11.878;2023-12-07T01:58:44;-0.80;99.90
19397;DHT22;9834;48.076;11.878;2023-12-07T02:01:15;-0.80;99.90
19397;DHT22;9834;48.076;11.878;2023-12-07T02:04:00;-0.90;99.90
19397;DHT22;9834;48.076;11.878;2023-12-07T02:06:27;-1.00;99.90
19397;DHT22;9834;48.076;11.878;2023-12-07T02:08:55;-1.00;99.90
19397;DHT22;9834;48.076;11.878;2023-12-07T02:11:22;-1.10;99.90
19397;DHT22;9834;48.076;11.878;2023-12-07T02:13:50;-1.10;99.90
19397;DHT22;9834;48.076;11.878;2023-12-07T02:16:25;-1.10;99.90
19397;DHT22;9834;48.076;11.878;2023-12-07T02:19:05;-1.10;99.90
19397;DHT22;9834;48.076;11.878;2023-12-07T02:21:40;-1.20;99.90
19397;DHT22;9834;48.076;11.878;2023-12-07T02:24:14;-1.20;99.90
19397;DHT22;9834;48.076;11.878;2023-12-07T02:26:46;-1.20;99.90
19397;DHT22;9834;48.076;11.878;2023-12-07T02:29:16;-1.20;99.90
19397;DHT22;9834;48.076;11.878;2023-12-07T02:31:47;-1.20;99.90
19397;DHT22;9834;48.076;11.878;2023-12-07T02:34:22;-1.10;99.90
19397;DHT22;9834;48.076;11.878;2023-12-07T02:36:52;-1.10;99.90
19397;DHT22;9834;48.076;11.878;2023-12-07T02:39:21;-1.00;99.90
19397;DHT22;9834;48.076;11.878;2023-12-07T02:41:54;-1.00;99.90
19397;DHT22;9834;48.076;11.878;2023-12-07T02:44:24;-1.00;99.90
19397;DHT22;9834;48.076;11.878;2023-12-07T02:46:57;-1.10;99.90
19397;DHT22;9834;48.076;11.878;2023-12-07T02:49:28;-1.10;99.90
19397;DHT22;9834;48.076;11.878;2023-12-07T02:51:56;-1.10;99.90
19397;DHT22;9834;48.076;11.878;2023-12-07T02:54:24;-1.00;99.90
19397;DHT22;9834;48.076;11.878;2023-12-07T02:56:55;-1.00;99.90
19397;DHT22;9834;48.076;11.878;2023-12-07T02:59:22;-0.90;99.90
19397;DHT22;9834;48.076;11.878;2023-12-07T03:01:53;-0.90;99.90
19397;DHT22;9834;48.076;11.878;2023-12-07T03:04:24;-0.90;99.90
19397;DHT22;9834;48.076;11.878;2023-12-07T03:06:54;-0.90;99.90
19397;DHT22;9834;48.076;11.878;2023-12-07T03:09:27;-0.90;99.90
19397;DHT22;9834;48.076;11.878;2023-12-07T03:11:56;-0.90;99.90
19397;DHT22;9834;48.076;11.878;2023-12-07T03:14:26;-0.90;99.90
19397;DHT22;9834;48.076;11.878;2023-12-07T03:16:53;-1.00;99.90
19397;DHT22;9834;48.076;11.878;2023-12-07T03:19:23;-1.10;99.90
19397;DHT22;9834;48.076;11.878;2023-12-07T03:21:54;-1.20;99.90
19397;DHT22;9834;48.076;11.878;2023-12-07T03:24:21;-1.20;99.90
19397;DHT22;9834;48.076;11.878;2023-12-07T03:26:51;-1.20;99.90
19397;DHT22;9834;48.076;11.878;2023-12-07T03:29:30;-1.30;99.90
19397;DHT22;9834;48.076;11.878;2023-12-07T03:31:57;-1.40;99.90
19397;DHT22;9834;48.076;11.878;2023-12-07T03:34:30;-1.40;99.90
19397;DHT22;9834;48.076;11.878;2023-12-07T03:36:58;-1.40;99.90
19397;DHT22;9834;48.076;11.878;2023-12-07T03:39:25;-1.40;99.90
19397;DHT22;9834;48.076;11.878;2023-12-07T03:41:53;-1.40;99.90
19397;DHT22;9834;48.076;11.878;2023-12-07T03:44:23;-1.30;99.90
19397;DHT22;9834;48.076;11.878;2023-12-07T03:46:55;-1.30;99.90
19397;DHT22;9834;48.076;11.878;2023-12-07T03:49:23;-1.40;99.90
19397;DHT22;9834;48.076;11.878;2023-12-07T03:51:50;-1.50;99.90
19397;DHT22;9834;48.076;11.878;2023-12-07T03:54:19;-1.60;99.90
19397;DHT22;9834;48.076;11.878;2023-12-07T03:56:50;-1.60;99.90
19397;DHT22;9834;48.076;11.878;2023-12-07T03:59:17;-1.50;99.90
19397;DHT22;9834;48.076;11.878;2023-12-07T04:01:44;-1.40;99.90
19397;DHT22;9834;48.076;11.878;2023-12-07T04:04:21;-1.40;99.90
19397;DHT22;9834;48.076;11.878;2023-12-07T04:06:52;-1.40;99.90
19397;DHT22;9834;48.076;11.878;2023-12-07T04:09:19;-1.40;99.90
19397;DHT22;9834;48.076;11.878;2023-12-07T04:11:47;-1.40;99.90
19397;DHT22;9834;48.076;11.878;2023-12-07T04:14:21;-1.40;99.90
19397;DHT22;9834;48.076;11.878;2023-12-07T04:16:48;-1.50;99.90
19397;DHT22;9834;48.076;11.878;2023-12-07T04:19:18;-1.50;99.90
19397;DHT22;9834;48.076;11.878;2023-12-07T04:21:49;-1.50;99.90
19397;DHT22;9834;48.076;11.878;2023-12-07T04:24:16;-1.50;99.90
19397;DHT22;9834;48.076;11.878;2023-12-07T04:26:44;-1.40;99.90
19397;DHT22;9834;48.076;11.878;2023-12-07T04:29:11;-1.40;99.90
19397;DHT22;9834;48.076;11.878;2023-12-07T04:31:45;-1.40;99.90
19397;DHT22;9834;48.076;11.878;2023-12-07T04:34:12;-1.30;99.90
19397;DHT22;9834;48.076;11.878;2023-12-07T04:36:43;-1.30;99.90
19397;DHT22;9834;48.076;11.878;2023-12-07T04:39:12;-1.30;99.90
19397;DHT22;9834;48.076;11.878;2023-12-07T04:41:42;-1.30;99.90
19397;DHT22;9834;48.076;11.878;2023-12-07T04:44:12;-1.30;99.90
19397;DHT22;9834;48.076;11.878;2023-12-07T04:46:39;-1.30;99.90
19397;DHT22;9834;48.076;11.878;2023-12-07T04:49:12;-1.20;99.90
19397;DHT22;9834;48.076;11.878;2023-12-07T04:51:54;-1.20;99.90
19397;DHT22;9834;48.076;11.878;2023-12-07T04:54:24;-1.10;99.90
19397;DHT22;9834;48.076;11.878;2023-12-07T04:56:53;-1.00;99.90
19397;DHT22;9834;48.076;11.878;2023-12-07T04:59:21;-1.00;99.90
19397;DHT22;9834;48.076;11.878;2023-12-07T05:02:04;-1.00;99.90
19397;DHT22;9834;48.076;11.878;2023-12-07T05:04:59;-0.90;99.90
19397;DHT22;9834;48.076;11.878;2023-12-07T05:07:26;-0.90;99.90
19397;DHT22;9834;48.076;11.878;2023-12-07T05:09:55;-0.90;99.90
19397;DHT22;9834;48.076;11.878;2023-12-07T05:12:22;-0.90;99.90
19397;DHT22;9834;48.076;11.878;2023-12-07T05:14:49;-0.90;99.90
19397;DHT22;9834;48.076;11.878;2023-12-07T05:17:17;-0.80;99.90
19397;DHT22;9834;48.076;11.878;2023-12-07T05:19:44;-0.80;99.90
19397;DHT22;9834;48.076;11.878;2023-12-07T05:22:16;-0.80;99.90
19397;DHT22;9834;48.076;11.878;2023-12-07T05:24:44;-0.80;99.90
19397;DHT22;9834;48.076;11.878;2023-12-07T05:27:15;-0.70;99.90
19397;DHT22;9834;48.076;11.878;2023-12-07T05:29:43;-0.70;99.90
19397;DHT22;9834;48.076;11.878;2023-12-07T05:32:10;-0.60;99.90
19397;DHT22;9834;48.076;11.878;2023-12-07T05:34:38;-0.60;99.90
19397;DHT22;9834;48.076;11.878;2023-12-07T05:37:08;-0.70;99.90
19397;DHT22;9834;48.076;11.878;2023-12-07T05:39:38;-0.80;99.90
19397;DHT22;9834;48.076;11.878;2023-12-07T05:42:09;-0.90;99.90
19397;DHT22;9834;48.076;11.878;2023-12-07T05:44:40;-1.20;99.90
19397;DHT22;9834;48.076;11.878;2023-12-07T05:47:08;-1.30;99.90
19397;DHT22;9834;48.076;11.878;2023-12-07T05:49:41;-1.40;99.90
19397;DHT22;9834;48.076;11.878;2023-12-07T05:52:08;-1.50;99.90
19397;DHT22;9834;48.076;11.878;2023-12-07T05:54:46;-1.60;99.90
19397;DHT22;9834;48.076;11.878;2023-12-07T05:57:14;-1.70;99.90
19397;DHT22;9834;48.076;11.878;2023-12-07T05:59:43;-1.80;99.90
19397;DHT22;9834;48.076;11.878;2023-12-07T06:02:12;-1.90;99.90
19397;DHT22;9834;48.076;11.878;2023-12-07T06:04:42;-2.00;99.90
19397;DHT22;9834;48.076;11.878;2023-12-07T06:07:10;-2.10;99.90
19397;DHT22;9834;48.076;11.878;2023-12-07T06:09:40;-2.10;99.90
19397;DHT22;9834;48.076;11.878;2023-12-07T06:12:08;-2.20;99.90
19397;DHT22;9834;48.076;11.878;2023-12-07T06:14:38;-2.30;99.90
19397;DHT22;9834;48.076;11.878;2023-12-07T06:17:14;-2.40;99.90
19397;DHT22;9834;48.076;11.878;2023-12-07T06:19:42;-2.50;99.90
19397;DHT22;9834;48.076;11.878;2023-12-07T06:22:11;-2.60;99.90
19397;DHT22;9834;48.076;11.878;2023-12-07T06:24:45;-2.70;99.90
19397;DHT22;9834;48.076;11.878;2023-12-07T06:27:13;-2.70;99.90
19397;DHT22;9834;48.076;11.878;2023-12-07T06:29:43;-2.80;99.90
19397;DHT22;9834;48.076;11.878;2023-12-07T06:32:11;-2.80;99.90
19397;DHT22;9834;48.076;11.878;2023-12-07T06:34:46;-2.20;99.90
19397;DHT22;9834;48.076;11.878;2023-12-07T06:37:15;-3.00;99.90
19397;DHT22;9834;48.076;11.878;2023-12-07T06:39:53;-3.00;99.90
19397;DHT22;9834;48.076;11.878;2023-12-07T06:42:28;-3.00;99.90
19397;DHT22;9834;48.076;11.878;2023-12-07T06:45:04;-3.10;99.90
19397;DHT22;9834;48.076;11.878;2023-12-07T06:47:40;-3.10;99.90
19397;DHT22;9834;48.076;11.878;2023-12-07T06:50:20;-3.10;99.90
19397;DHT22;9834;48.076;11.878;2023-12-07T06:52:48;-3.20;99.90
19397;DHT22;9834;48.076;11.878;2023-12-07T06:55:19;-3.20;99.90
19397;DHT22;9834;48.076;11.878;2023-12-07T06:57:50;-3.20;99.90
19397;DHT22;9834;48.076;11.878;2023-12-07T07:00:18;-3.20;99.90
19397;DHT22;9834;48.076;11.878;2023-12-07T07:02:55;-3.30;99.90
19397;DHT22;9834;48.076;11.878;2023-12-07T07:05:23;-3.30;99.90
19397;DHT22;9834;48.076;11.878;2023-12-07T07:07:58;-3.30;99.90
19397;DHT22;9834;48.076;11.878;2023-12-07T07:10:26;-3.30;99.90
19397;DHT22;9834;48.076;11.878;2023-12-07T07:12:59;-3.30;99.90
19397;DHT22;9834;48.076;11.878;2023-12-07T07:15:37;-3.30;99.90
19397;DHT22;9834;48.076;11.878;2023-12-07T07:18:20;-3.20;99.90
19397;DHT22;9834;48.076;11.878;2023-12-07T07:20:49;-3.20;99.90
19397;DHT22;9834;48.076;11.878;2023-12-07T07:23:19;-3.30;99.90
19397;DHT22;9834;48.076;11.878;2023-12-07T07:25:51;-3.20;99.90
19397;DHT22;9834;48.076;11.878;2023-12-07T07:28:22;-3.20;99.90
19397;DHT22;9834;48.076;11.878;2023-12-07T07:30:49;-3.10;99.90
19397;DHT22;9834;48.076;11.878;2023-12-07T07:33:18;-3.10;99.90
19397;DHT22;9834;48.076;11.878;2023-12-07T07:35:55;-3.10;99.90
19397;DHT22;9834;48.076;11.878;2023-12-07T07:38:23;-3.00;99.90
19397;DHT22;9834;48.076;11.878;2023-12-07T07:40:51;-3.00;99.90
19397;DHT22;9834;48.076;11.878;2023-12-07T07:43:20;-2.90;99.90
19397;DHT22;9834;48.076;11.878;2023-12-07T07:45:48;-2.80;99.90
19397;DHT22;9834;48.076;11.878;2023-12-07T07:48:20;-2.80;99.90
19397;DHT22;9834;48.076;11.878;2023-12-07T07:50:55;-2.70;99.90
19397;DHT22;9834;48.076;11.878;2023-12-07T07:53:22;-2.60;99.90
19397;DHT22;9834;48.076;11.878;2023-12-07T07:55:50;-2.60;99.90
19397;DHT22;9834;48.076;11.878;2023-12-07T07:58:17;-2.50;99.90
19397;DHT22;9834;48.076;11.878;2023-12-07T08:00:50;-2.40;99.90
19397;DHT22;9834;48.076;11.878;2023-12-07T08:03:21;-2.30;99.90
19397;DHT22;9834;48.076;11.878;2023-12-07T08:05:51;-2.30;99.90
19397;DHT22;9834;48.076;11.878;2023-12-07T08:08:18;-2.20;99.90
19397;DHT22;9834;48.076;11.878;2023-12-07T08:10:48;-2.20;99.90
19397;DHT22;9834;48.076;11.878;2023-12-07T08:13:17;-2.10;99.90
19397;DHT22;9834;48.076;11.878;2023-12-07T08:15:44;-2.10;99.90
19397;DHT22;9834;48.076;11.878;2023-12-07T08:18:12;-2.00;99.90
19397;DHT22;9834;48.076;11.878;2023-12-07T08:20:44;-2.00;99.90
19397;DHT22;9834;48.076;11.878;2023-12-07T08:23:17;-2.00;99.90
19397;DHT22;9834;48.076;11.878;2023-12-07T08:25:47;-1.90;99.90
19397;DHT22;9834;48.076;11.878;2023-12-07T08:28:14;-1.70;99.90
19397;DHT22;9834;48.076;11.878;2023-12-07T08:30:42;-1.60;99.90
19397;DHT22;9834;48.076;11.878;2023-12-07T08:33:11;-1.50;99.90
19397;DHT22;9834;48.076;11.878;2023-12-07T08:35:40;-0.40;99.90
19397;DHT22;9834;48.076;11.878;2023-12-07T08:38:09;-1.20;99.90
19397;DHT22;9834;48.076;11.878;2023-12-07T08:40:36;-1.00;99.90
19397;DHT22;9834;48.076;11.878;2023-12-07T08:43:05;-0.80;99.90
19397;DHT22;9834;48.076;11.878;2023-12-07T08:45:35;-0.60;99.90
19397;DHT22;9834;48.076;11.878;2023-12-07T08:48:04;-0.40;99.90
19397;DHT22;9834;48.076;11.878;2023-12-07T08:50:32;-0.20;99.90
19397;DHT22;9834;48.076;11.878;2023-12-07T08:53:00;-0.10;99.90
19397;DHT22;9834;48.076;11.878;2023-12-07T08:55:31;0.10;99.90
19397;DHT22;9834;48.076;11.878;2023-12-07T08:57:58;0.30;99.90
19397;DHT22;9834;48.076;11.878;2023-12-07T09:00:26;0.50;99.90
19397;DHT22;9834;48.076;11.878;2023-12-07T09:02:56;0.60;99.90
19397;DHT22;9834;48.076;11.878;2023-12-07T09:05:26;0.70;99.90
19397;DHT22;9834;48.076;11.878;2023-12-07T09:07:53;1.10;99.90
19397;DHT22;9834;48.076;11.878;2023-12-07T09:10:23;1.30;99.90
19397;DHT22;9834;48.076;11.878;2023-12-07T09:12:52;1.50;99.90
19397;DHT22;9834;48.076;11.878;2023-12-07T09:15:23;1.70;99.90
19397;DHT22;9834;48.076;11.878;2023-12-07T09:17:50;1.90;99.90
19397;DHT22;9834;48.076;11.878;2023-12-07T09:20:18;2.00;99.90
19397;DHT22;9834;48.076;11.878;2023-12-07T09:22:46;2.50;99.90
19397;DHT22;9834;48.076;11.878;2023-12-07T09:25:15;2.70;99.90
19397;DHT22;9834;48.076;11.878;2023-12-07T09:27:43;3.00;99.90
19397;DHT22;9834;48.076;11.878;2023-12-07T09:30:14;3.30;99.90
19397;DHT22;9834;48.076;11.878;2023-12-07T09:32:43;3.50;99.90
19397;DHT22;9834;48.076;11.878;2023-12-07T09:35:10;3.80;99.90
19397;DHT22;9834;48.076;11.878;2023-12-07T09:37:41;3.90;99.90
19397;DHT22;9834;48.076;11.878;2023-12-07T09:40:16;3.80;99.90
19397;DHT22;9834;48.076;11.878;2023-12-07T09:42:45;4.10;99.90
19397;DHT22;9834;48.076;11.878;2023-12-07T09:45:17;4.30;99.90
19397;DHT22;9834;48.076;11.878;2023-12-07T09:47:50;4.50;99.90
19397;DHT22;9834;48.076;11.878;2023-12-07T09:50:19;4.50;99.90
19397;DHT22;9834;48.076;11.878;2023-12-07T09:52:48;4.40;99.90
19397;DHT22;9834;48.076;11.878;2023-12-07T09:55:16;4.30;99.90
19397;DHT22;9834;48.076;11.878;2023-12-07T09:57:44;4.50;99.90
19397;DHT22;9834;48.076;11.878;2023-12-07T10:00:12;4.40;99.90
19397;DHT22;9834;48.076;11.878;2023-12-07T10:02:43;4.50;99.90
19397;DHT22;9834;48.076;11.878;2023-12-07T10:05:13;4.50;99.90
19397;DHT22;9834;48.076;11.878;2023-12-07T10:07:42;4.60;99.90
19397;DHT22;9834;48.076;11.878;2023-12-07T10:10:18;4.50;99.90
19397;DHT22;9834;48.076;11.878;2023-12-07T10:12:47;4.50;99.90
19397;DHT22;9834;48.076;11.878;2023-12-07T10:15:18;4.20;98.50
19397;DHT22;9834;48.076;11.878;2023-12-07T10:17:48;4.30;99.50
19397;DHT22;9834;48.076;11.878;2023-12-07T10:20:20;4.00;98.60
19397;DHT22;9834;48.076;11.878;2023-12-07T10:22:51;3.80;98.90
19397;DHT22;9834;48.076;11.878;2023-12-07T10:25:31;3.70;99.90
19397;DHT22;9834;48.076;11.878;2023-12-07T10:27:58;3.60;99.90
19397;DHT22;9834;48.076;11.878;2023-12-07T10:30:34;3.50;99.90
19397;DHT22;9834;48.076;11.878;2023-12-07T10:33:10;3.40;99.90
19397;DHT22;9834;48.076;11.878;2023-12-07T10:35:39;3.50;99.60
19397;DHT22;9834;48.076;11.878;2023-12-07T10:38:06;3.50;99.50
19397;DHT22;9834;48.076;11.878;2023-12-07T10:40:37;3.50;97.30
19397;DHT22;9834;48.076;11.878;2023-12-07T10:43:06;3.50;96.70
19397;DHT22;9834;48.076;11.878;2023-12-07T10:45:37;3.60;96.70
19397;DHT22;9834;48.076;11.878;2023-12-07T10:48:09;3.70;94.30
19397;DHT22;9834;48.076;11.878;2023-12-07T10:50:42;3.70;94.40
19397;DHT22;9834;48.076;11.878;2023-12-07T10:53:21;3.80;93.10
19397;DHT22;9834;48.076;11.878;2023-12-07T10:55:56;3.90;91.90
19397;DHT22;9834;48.076;11.878;2023-12-07T10:58:25;4.00;91.30
19397;DHT22;9834;48.076;11.878;2023-12-07T11:01:12;4.10;90.80
19397;DHT22;9834;48.076;11.878;2023-12-07T11:03:45;4.30;91.00
19397;DHT22;9834;48.076;11.878;2023-12-07T11:06:13;4.40;90.20
19397;DHT22;9834;48.076;11.878;2023-12-07T11:08:46;4.30;90.00
19397;DHT22;9834;48.076;11.878;2023-12-07T11:11:30;4.60;89.20
19397;DHT22;9834;48.076;11.878;2023-12-07T11:14:02;4.80;89.60
19397;DHT22;9834;48.076;11.878;2023-12-07T11:16:35;4.80;89.10
19397;DHT22;9834;48.076;11.878;2023-12-07T11:22:09;5.20;76.30
19397;DHT22;9834;48.076;11.878;2023-12-07T11:24:37;5.40;75.90
19397;DHT22;9834;48.076;11.878;2023-12-07T11:27:39;5.50;77.90
19397;DHT22;9834;48.076;11.878;2023-12-07T11:30:13;5.40;76.60
19397;DHT22;9834;48.076;11.878;2023-12-07T11:32:40;5.40;73.00
19397;DHT22;9834;48.076;11.878;2023-12-07T11:35:16;5.50;73.00
19397;DHT22;9834;48.076;11.878;2023-12-07T11:38:08;5.60;71.60
19397;DHT22;9834;48.076;11.878;2023-12-07T11:40:40;5.70;72.40
19397;DHT22;9834;48.076;11.878;2023-12-07T11:43:41;5.70;68.70
19397;DHT22;9834;48.076;11.878;2023-12-07T11:46:12;5.70;68.90
19397;DHT22;9834;48.076;11.878;2023-12-07T11:51:29;5.80;62.90
19397;DHT22;9834;48.076;11.878;2023-12-07T11:54:05;5.70;63.50
19397;DHT22;9834;48.076;11.878;2023-12-07T11:56:37;5.60;64.10
19397;DHT22;9834;48.076;11.878;2023-12-07T11:59:05;6.00;63.50
19397;DHT22;9834;48.076;11.878;2023-12-07T12:01:35;6.10;63.20
19397;DHT22;9834;48.076;11.878;2023-12-07T12:04:06;6.00;62.80
19397;DHT22;9834;48.076;11.878;2023-12-07T12:06:43;6.00;60.40
19397;DHT22;9834;48.076;11.878;2023-12-07T12:09:12;5.90;58.60
19397;DHT22;9834;48.076;11.878;2023-12-07T12:11:49;5.90;58.50
19397;DHT22;9834;48.076;11.878;2023-12-07T12:14:20;6.00;58.50
19397;DHT22;9834;48.076;11.878;2023-12-07T12:16:48;5.90;59.00
19397;DHT22;9834;48.076;11.878;2023-12-07T12:19:18;6.00;59.00
19397;DHT22;9834;48.076;11.878;2023-12-07T12:21:51;6.20;58.20
19397;DHT22;9834;48.076;11.878;2023-12-07T12:24:24;6.30;56.50
19397;DHT22;9834;48.076;11.878;2023-12-07T12:26:51;6.40;58.00
19397;DHT22;9834;48.076;11.878;2023-12-07T12:29:21;6.40;59.00
19397;DHT22;9834;48.076;11.878;2023-12-07T12:31:52;6.10;58.70
19397;DHT22;9834;48.076;11.878;2023-12-07T12:34:21;6.30;58.60
19397;DHT22;9834;48.076;11.878;2023-12-07T12:36:56;6.30;59.10
19397;DHT22;9834;48.076;11.878;2023-12-07T12:39:27;6.20;59.50
19397;DHT22;9834;48.076;11.878;2023-12-07T12:41:56;6.20;60.00
19397;DHT22;9834;48.076;11.878;2023-12-07T12:44:27;6.30;59.50
19397;DHT22;9834;48.076;11.878;2023-12-07T12:46:58;6.40;60.20
19397;DHT22;9834;48.076;11.878;2023-12-07T12:49:42;6.50;60.80
19397;DHT22;9834;48.076;11.878;2023-12-07T12:52:15;6.60;61.60
19397;DHT22;9834;48.076;11.878;2023-12-07T12:54:45;6.60;62.10
19397;DHT22;9834;48.076;11.878;2023-12-07T12:57:17;6.60;62.20
19397;DHT22;9834;48.076;11.878;2023-12-07T12:59:45;6.80;60.40
19397;DHT22;9834;48.076;11.878;2023-12-07T13:02:14;7.00;60.20
19397;DHT22;9834;48.076;11.878;2023-12-07T13:04:42;7.30;56.60
19397;DHT22;9834;48.076;11.878;2023-12-07T13:07:16;7.40;55.40
19397;DHT22;9834;48.076;11.878;2023-12-07T13:09:46;7.50;54.20
19397;DHT22;9834;48.076;11.878;2023-12-07T13:12:19;7.50;54.30
19397;DHT22;9834;48.076;11.878;2023-12-07T13:14:59;7.70;54.10
19397;DHT22;9834;48.076;11.878;2023-12-07T13:17:28;7.70;53.60
19397;DHT22;9834;48.076;11.878;2023-12-07T13:20:00;8.00;53.50
19397;DHT22;9834;48.076;11.878;2023-12-07T13:22:31;8.20;53.80
19397;DHT22;9834;48.076;11.878;2023-12-07T13:25:01;8.50;53.20
19397;DHT22;9834;48.076;11.878;2023-12-07T13:27:28;9.50;53.60
19397;DHT22;9834;48.076;11.878;2023-12-07T13:30:02;10.50;51.00
19397;DHT22;9834;48.076;11.878;2023-12-07T13:32:33;11.50;49.50
19397;DHT22;9834;48.076;11.878;2023-12-07T13:35:09;12.60;47.30
19397;DHT22;9834;48.076;11.878;2023-12-07T13:37:41;13.40;45.60
19397;DHT22;9834;48.076;11.878;2023-12-07T13:40:23;14.00;44.30
19397;DHT22;9834;48.076;11.878;2023-12-07T13:42:58;14.10;43.30
19397;DHT22;9834;48.076;11.878;2023-12-07T13:45:25;14.40;42.00
19397;DHT22;9834;48.076;11.878;2023-12-07T13:47:56;14.20;42.10
19397;DHT22;9834;48.076;11.878;2023-12-07T13:50:24;14.30;40.90
19397;DHT22;9834;48.076;11.878;2023-12-07T13:52:59;13.80;41.40
19397;DHT22;9834;48.076;11.878;2023-12-07T13:55:28;13.80;41.70
19397;DHT22;9834;48.076;11.878;2023-12-07T13:57:57;13.90;41.40
19397;DHT22;9834;48.076;11.878;2023-12-07T14:00:32;14.10;40.50
19397;DHT22;9834;48.076;11.878;2023-12-07T14:03:05;13.30;40.20
19397;DHT22;9834;48.076;11.878;2023-12-07T14:05:36;13.00;40.70
19397;DHT22;9834;48.076;11.878;2023-12-07T14:08:05;13.10;41.10
19397;DHT22;9834;48.076;11.878;2023-12-07T14:10:44;13.40;40.90
19397;DHT22;9834;48.076;11.878;2023-12-07T14:13:12;12.80;41.00
19397;DHT22;9834;48.076;11.878;2023-12-07T14:15:46;12.20;41.60
19397;DHT22;9834;48.076;11.878;2023-12-07T14:18:16;12.20;43.50
19397;DHT22;9834;48.076;11.878;2023-12-07T14:20:46;11.70;43.80
19397;DHT22;9834;48.076;11.878;2023-12-07T14:23:15;11.70;44.90
19397;DHT22;9834;48.076;11.878;2023-12-07T14:25:51;11.10;46.00
19397;DHT22;9834;48.076;11.878;2023-12-07T14:28:24;10.10;47.30
19397;DHT22;9834;48.076;11.878;2023-12-07T14:30:54;8.90;50.60
19397;DHT22;9834;48.076;11.878;2023-12-07T14:33:28;7.70;52.50
19397;DHT22;9834;48.076;11.878;2023-12-07T14:35:56;6.60;54.50
19397;DHT22;9834;48.076;11.878;2023-12-07T14:38:32;5.40;57.40
19397;DHT22;9834;48.076;11.878;2023-12-07T14:40:59;4.50;59.50
19397;DHT22;9834;48.076;11.878;2023-12-07T14:43:30;3.80;62.40
19397;DHT22;9834;48.076;11.878;2023-12-07T14:45:57;3.30;65.80
19397;DHT22;9834;48.076;11.878;2023-12-07T14:48:25;2.80;67.90
19397;DHT22;9834;48.076;11.878;2023-12-07T14:50:55;2.40;70.80
19397;DHT22;9834;48.076;11.878;2023-12-07T14:53:25;2.10;74.30
19397;DHT22;9834;48.076;11.878;2023-12-07T14:55:57;1.90;77.00
19397;DHT22;9834;48.076;11.878;2023-12-07T14:58:28;1.60;80.30
19397;DHT22;9834;48.076;11.878;2023-12-07T15:01:01;1.30;83.20
19397;DHT22;9834;48.076;11.878;2023-12-07T15:03:28;1.10;90.00
19397;DHT22;9834;48.076;11.878;2023-12-07T15:06:06;0.90;93.80
19397;DHT22;9834;48.076;11.878;2023-12-07T15:08:33;0.70;97.90
19397;DHT22;9834;48.076;11.878;2023-12-07T15:11:04;0.50;99.90
19397;DHT22;9834;48.076;11.878;2023-12-07T15:13:34;0.40;99.90
19397;DHT22;9834;48.076;11.878;2023-12-07T15:16:10;0.10;99.90
19397;DHT22;9834;48.076;11.878;2023-12-07T15:18:42;0.00;99.90
19397;DHT22;9834;48.076;11.878;2023-12-07T15:21:12;-0.20;99.90
19397;DHT22;9834;48.076;11.878;2023-12-07T15:23:46;-0.40;99.90
19397;DHT22;9834;48.076;11.878;2023-12-07T15:26:24;-0.40;99.90
19397;DHT22;9834;48.076;11.878;2023-12-07T15:28:51;-0.60;99.90
19397;DHT22;9834;48.076;11.878;2023-12-07T15:31:19;-0.70;99.90
19397;DHT22;9834;48.076;11.878;2023-12-07T15:33:53;-0.80;99.90
19397;DHT22;9834;48.076;11.878;2023-12-07T15:36:24;-0.90;99.90
19397;DHT22;9834;48.076;11.878;2023-12-07T15:38:52;-1.00;99.90
19397;DHT22;9834;48.076;11.878;2023-12-07T15:41:24;-1.10;99.90
19397;DHT22;9834;48.076;11.878;2023-12-07T15:43:52;-1.20;99.90
19397;DHT22;9834;48.076;11.878;2023-12-07T15:46:20;-1.30;99.90
19397;DHT22;9834;48.076;11.878;2023-12-07T15:48:53;-1.30;99.90
19397;DHT22;9834;48.076;11.878;2023-12-07T15:51:28;-1.30;99.90
19397;DHT22;9834;48.076;11.878;2023-12-07T15:53:55;-1.40;99.90
19397;DHT22;9834;48.076;11.878;2023-12-07T15:56:27;-1.40;99.90
19397;DHT22;9834;48.076;11.878;2023-12-07T15:59:00;-1.40;99.90
19397;DHT22;9834;48.076;11.878;2023-12-07T16:01:30;-1.50;99.90
19397;DHT22;9834;48.076;11.878;2023-12-07T16:03:57;-1.60;99.90
19397;DHT22;9834;48.076;11.878;2023-12-07T16:06:25;-1.70;99.90